Ron Hull — WDD5737 — position and weather

sailwx.info

Track history (hours):
 
Tides and Currents Weather Stations Pressure Air Temp Water Temp Dewpoint Dewpoint Depression Visibility Wind Speed Wind Dir Waves Ship Positions

Ron Hull

Owner: Florida Marine, LLC, Mandeville, LA. More information available from US FCC via Universal Licensing System and Coast Guard Vessel Documentation Center.

Last reported at 2017-Nov-20 00:30 UTC. Time now 2017-Nov-21 20:52 UTC.
Position N 30°03' W 093°44'.

Length 27 m; draft 3.2 m.

Type: Towing. MMSI: 367162840.

Date/timePositionNaut miles runAvg speedWind from/ knotsBaromVisibWave heightAir tempDewpointWater temp
2017-Nov-20 00:30N 30°03' W 093°44'5 0.2
2017-Nov-19 03:00N 30°04' W 093°38'3 5.7
2017-Nov-19 02:30N 30°04' W 093°35'3 5.6
2017-Nov-19 02:00N 30°04' W 093°32'3 6.0
2017-Nov-19 01:30N 30°04' W 093°28'3 5.9
2017-Nov-19 01:01N 30°04' W 093°25'3 5.6
2017-Nov-19 00:31N 30°04' W 093°22'3 5.1
2017-Nov-19 00:01N 30°05' W 093°20'1 1.7
2017-Nov-18 23:30N 30°06' W 093°19'0 0.0
2017-Nov-18 23:00N 30°06' W 093°19'0 0.0
2017-Nov-18 22:30N 30°06' W 093°19'0 0.0
2017-Nov-18 22:00N 30°06' W 093°19'0 0.0
2017-Nov-18 21:30N 30°06' W 093°19'1 1.4
2017-Nov-18 21:00N 30°06' W 093°20'2 3.8
2017-Nov-18 20:30N 30°08' W 093°19'0 0.1
2017-Nov-18 20:00N 30°08' W 093°19'0 0.0
2017-Nov-18 19:30N 30°08' W 093°19'0 0.0
2017-Nov-18 19:00N 30°08' W 093°19'0 0.0
2017-Nov-18 18:30N 30°08' W 093°19'0 0.0
2017-Nov-18 18:00N 30°08' W 093°19'0 0.0
2017-Nov-18 17:30N 30°08' W 093°19'0 0.0
2017-Nov-18 17:00N 30°08' W 093°19'0 0.0
2017-Nov-18 16:30N 30°08' W 093°19'0 0.0
2017-Nov-18 16:00N 30°08' W 093°19'0 0.0
2017-Nov-18 15:31N 30°08' W 093°19'0 0.0
2017-Nov-18 15:00N 30°08' W 093°19'0 0.0
2017-Nov-18 14:31N 30°08' W 093°19'0 0.0
2017-Nov-18 14:00N 30°08' W 093°19'0 0.0
2017-Nov-18 13:30N 30°08' W 093°19'0 0.0
2017-Nov-18 13:00N 30°08' W 093°19'0 0.0
2017-Nov-18 12:30N 30°08' W 093°19'0 0.0
2017-Nov-18 12:00N 30°08' W 093°19'0 0.0
2017-Nov-18 11:30N 30°08' W 093°19'0 0.0
2017-Nov-18 11:00N 30°08' W 093°19'0 0.0
2017-Nov-18 10:30N 30°08' W 093°19'0 0.0
2017-Nov-18 10:01N 30°08' W 093°19'0 0.0
2017-Nov-18 09:31N 30°08' W 093°19'0 0.0
2017-Nov-18 09:00N 30°08' W 093°19'0 0.0
2017-Nov-18 08:30N 30°08' W 093°19'0 0.0
2017-Nov-18 08:00N 30°08' W 093°19'0 0.0
2017-Nov-18 07:30N 30°08' W 093°19'0 0.0
2017-Nov-18 07:00N 30°08' W 093°19'0 0.0
2017-Nov-18 06:30N 30°08' W 093°19'0 0.0
2017-Nov-18 06:00N 30°08' W 093°19'0 0.0
2017-Nov-18 05:30N 30°08' W 093°19'0 0.0
2017-Nov-18 05:01N 30°08' W 093°19'0 0.0
2017-Nov-18 04:30N 30°08' W 093°19'0 0.0
2017-Nov-18 04:00N 30°08' W 093°19'0 0.0
2017-Nov-18 03:31N 30°08' W 093°19'0 0.0
2017-Nov-18 03:00N 30°08' W 093°19'0 0.0
2017-Nov-18 02:31N 30°08' W 093°19'0 0.0
2017-Nov-18 02:00N 30°08' W 093°19'0 0.0
2017-Nov-18 01:31N 30°08' W 093°19'0 0.0
2017-Nov-18 01:00N 30°08' W 093°19'0 0.0
2017-Nov-18 00:30N 30°08' W 093°19'0 0.0
2017-Nov-18 00:00N 30°08' W 093°19'0 0.0
2017-Nov-17 23:31N 30°08' W 093°19'0 0.0
2017-Nov-17 23:01N 30°08' W 093°19'0 0.0
2017-Nov-17 22:31N 30°08' W 093°19'0 0.0
2017-Nov-17 22:00N 30°08' W 093°19'0 0.0
2017-Nov-17 21:31N 30°08' W 093°19'0 0.0
2017-Nov-17 21:00N 30°08' W 093°19'0 0.0
2017-Nov-17 20:30N 30°08' W 093°19'0 0.0
2017-Nov-17 20:00N 30°08' W 093°19'0 0.0
2017-Nov-17 19:30N 30°08' W 093°19'0 0.0
2017-Nov-17 19:00N 30°08' W 093°19'0 0.0
2017-Nov-17 18:30N 30°08' W 093°19'1 1.6
2017-Nov-17 18:01N 30°07' W 093°20'2 4.5
2017-Nov-17 17:31N 30°05' W 093°20'2 3.3
2017-Nov-17 17:00N 30°04' W 093°21'2 5.0
2017-Nov-17 16:30N 30°04' W 093°24'3 5.6
2017-Nov-17 16:01N 30°04' W 093°27'3 5.6
2017-Nov-17 15:30N 30°04' W 093°30'3 5.5
2017-Nov-17 15:00N 30°04' W 093°33'3 5.5
2017-Nov-17 14:30N 30°04' W 093°37'3 5.8
2017-Nov-17 13:55N 30°04' W 093°40'3 5.8
2017-Nov-17 13:27N 30°03' W 093°44'13 0.6
2017-Nov-16 14:38N 30°01' W 093°59'0 0.2
2017-Nov-16 14:28N 30°01' W 093°59'0 0.0
2017-Nov-16 13:49N 30°01' W 093°59'0 0.0
2017-Nov-16 13:18N 30°01' W 093°59'0 0.0
2017-Nov-16 12:59N 30°01' W 093°59'0 0.0
2017-Nov-16 12:30N 30°01' W 093°59'0 0.0
2017-Nov-16 11:22N 30°01' W 093°59'0 0.0
2017-Nov-16 10:57N 30°01' W 093°59'0 0.0
2017-Nov-16 10:30N 30°01' W 093°59'0 0.0
2017-Nov-16 10:00N 30°01' W 093°59'0 0.0
2017-Nov-16 09:22N 30°01' W 093°59'0 0.2
2017-Nov-16 09:00N 30°01' W 093°59'0 0.1
2017-Nov-16 08:27N 30°01' W 093°59'0 0.0
2017-Nov-16 07:55N 30°01' W 093°59'0 0.0
2017-Nov-16 06:13N 30°01' W 093°59'0 0.0
2017-Nov-16 05:52N 30°01' W 093°59'0 0.0
2017-Nov-16 05:30N 30°01' W 093°59'0 0.1
2017-Nov-16 05:00N 30°01' W 093°59'0 0.0
2017-Nov-16 04:27N 30°01' W 093°59'0 0.0
2017-Nov-16 03:59N 30°01' W 093°59'0 0.9
2017-Nov-16 03:28N 30°01' W 093°59'18 4.5
2017-Nov-15 23:31N 30°04' W 093°39'0 5.0
2017-Nov-15 23:26N 30°04' W 093°38'2 5.2
2017-Nov-15 22:59N 30°04' W 093°35'2 5.2
2017-Nov-15 22:30N 30°04' W 093°33'3 5.1
2017-Nov-15 22:00N 30°04' W 093°30'3 5.5
2017-Nov-15 21:31N 30°04' W 093°26'3 5.6
2017-Nov-15 21:00N 30°04' W 093°23'2 4.9
2017-Nov-15 20:30N 30°04' W 093°20'2 3.9
2017-Nov-15 20:00N 30°06' W 093°20'2 3.7
2017-Nov-15 19:30N 30°08' W 093°20'0 0.6
2017-Nov-15 19:00N 30°08' W 093°19'0 0.0
2017-Nov-15 18:30N 30°08' W 093°19'0 0.0
2017-Nov-15 18:01N 30°08' W 093°19'0 0.0
2017-Nov-15 17:30N 30°08' W 093°19'0 0.0
2017-Nov-15 17:01N 30°08' W 093°19'0 0.0
2017-Nov-15 16:30N 30°08' W 093°19'0 0.0
2017-Nov-15 16:00N 30°08' W 093°19'0 0.0
2017-Nov-15 15:30N 30°08' W 093°19'0 0.0
2017-Nov-15 15:00N 30°08' W 093°19'0 0.0
2017-Nov-15 14:30N 30°08' W 093°19'0 0.0
2017-Nov-15 14:00N 30°08' W 093°19'0 0.0
2017-Nov-15 13:31N 30°08' W 093°19'0 0.0
2017-Nov-15 13:00N 30°08' W 093°19'0 0.0
2017-Nov-15 12:30N 30°08' W 093°19'0 0.0
2017-Nov-15 12:00N 30°08' W 093°19'0 0.0
2017-Nov-15 11:30N 30°08' W 093°19'0 0.0
2017-Nov-15 11:01N 30°08' W 093°19'0 0.0
2017-Nov-15 10:31N 30°08' W 093°19'0 0.0
2017-Nov-15 10:00N 30°08' W 093°19'0 0.0
2017-Nov-15 09:31N 30°08' W 093°19'0 0.0
2017-Nov-15 09:01N 30°08' W 093°19'0 0.0
2017-Nov-15 08:30N 30°08' W 093°19'0 0.0
2017-Nov-15 08:00N 30°08' W 093°19'0 0.0
2017-Nov-15 07:30N 30°08' W 093°19'0 0.0
2017-Nov-15 07:00N 30°08' W 093°19'0 0.0
2017-Nov-15 06:30N 30°08' W 093°19'0 0.0
2017-Nov-15 06:00N 30°08' W 093°19'0 0.0
2017-Nov-15 05:30N 30°08' W 093°19'0 0.0
2017-Nov-15 05:01N 30°08' W 093°19'0 0.0
2017-Nov-15 04:31N 30°08' W 093°19'0 0.0
2017-Nov-15 04:01N 30°08' W 093°19'0 0.0
2017-Nov-15 03:30N 30°08' W 093°19'0 0.0
2017-Nov-15 03:01N 30°08' W 093°19'0 0.0
2017-Nov-15 02:31N 30°08' W 093°19'0 0.0
2017-Nov-15 02:00N 30°08' W 093°19'0 0.0
2017-Nov-15 01:30N 30°08' W 093°19'0 0.0
2017-Nov-15 01:00N 30°08' W 093°19'0 0.0
2017-Nov-15 00:30N 30°08' W 093°19'0 0.0
2017-Nov-15 00:00N 30°08' W 093°19'0 0.0
2017-Nov-14 23:30N 30°08' W 093°19'0 0.2
2017-Nov-14 23:00N 30°08' W 093°20'0 0.0
2017-Nov-14 22:30N 30°08' W 093°20'0 0.0
2017-Nov-14 22:00N 30°08' W 093°20'0 0.0
2017-Nov-14 21:30N 30°08' W 093°20'0 0.0
2017-Nov-14 21:01N 30°08' W 093°20'0 0.0
2017-Nov-14 20:31N 30°08' W 093°20'0 0.4
2017-Nov-14 20:00N 30°08' W 093°20'1 2.1
2017-Nov-14 19:30N 30°07' W 093°20'2 4.9
2017-Nov-14 19:01N 30°05' W 093°20'2 3.8
2017-Nov-14 18:30N 30°04' W 093°22'2 4.9
2017-Nov-14 18:00N 30°04' W 093°25'3 5.6
2017-Nov-14 17:31N 30°04' W 093°28'3 5.7
2017-Nov-14 17:01N 30°04' W 093°32'3 5.5
2017-Nov-14 16:30N 30°04' W 093°35'3 5.8
2017-Nov-14 15:58N 30°04' W 093°38'3 5.4
2017-Nov-14 15:23N 30°03' W 093°42'20 0.4
2017-Nov-12 13:45N 30°08' W 093°20'1 4.3
2017-Nov-12 13:27N 30°07' W 093°20'2 4.1
2017-Nov-12 12:59N 30°05' W 093°20'0 0.0
2017-Nov-10 16:23N 30°05' W 093°20'0 0.0
2017-Nov-10 15:59N 30°05' W 093°20'0 0.0
2017-Nov-10 15:29N 30°05' W 093°20'0 0.0
2017-Nov-10 14:59N 30°05' W 093°20'0 0.0
2017-Nov-10 14:29N 30°05' W 093°20'0 0.0
2017-Nov-10 13:59N 30°05' W 093°20'0 0.0
2017-Nov-10 13:29N 30°05' W 093°20'0 0.0
2017-Nov-10 12:59N 30°05' W 093°20'0 0.0
2017-Nov-10 12:29N 30°05' W 093°20'0 0.0
2017-Nov-10 11:59N 30°05' W 093°20'0 0.0
2017-Nov-10 11:29N 30°05' W 093°20'0 0.0
2017-Nov-10 10:59N 30°05' W 093°20'0 0.0
2017-Nov-10 10:23N 30°05' W 093°20'0 0.0
2017-Nov-10 09:59N 30°05' W 093°20'0 0.0
2017-Nov-10 09:29N 30°05' W 093°20'0 0.0
2017-Nov-10 08:59N 30°05' W 093°20'0 0.0
2017-Nov-10 08:29N 30°05' W 093°20'0 0.0
2017-Nov-10 07:59N 30°05' W 093°20'0 0.0
2017-Nov-10 07:29N 30°05' W 093°20'0 0.0
2017-Nov-10 06:59N 30°05' W 093°20'0 0.0
2017-Nov-10 06:29N 30°05' W 093°20'0 0.0
2017-Nov-10 05:59N 30°05' W 093°20'0 0.0
2017-Nov-10 05:29N 30°05' W 093°20'0 0.0
2017-Nov-10 04:59N 30°05' W 093°20'0 0.0
2017-Nov-10 04:29N 30°05' W 093°20'0 0.0
2017-Nov-10 03:58N 30°05' W 093°20'0 0.0
2017-Nov-10 03:28N 30°05' W 093°20'0 0.0
2017-Nov-10 02:59N 30°05' W 093°20'0 0.0
2017-Nov-10 02:29N 30°05' W 093°20'0 0.0
2017-Nov-10 01:58N 30°05' W 093°20'0 0.0
2017-Nov-10 01:29N 30°05' W 093°20'0 0.0
2017-Nov-10 00:59N 30°05' W 093°20'  
Track history (hours):
 
Tides and Currents Weather Stations Pressure Air Temp Water Temp Dewpoint Dewpoint Depression Visibility Wind Speed Wind Dir Waves Ship Positions

Ron Hull

Owner: Florida Marine, LLC, Mandeville, LA. More information available from US FCC via Universal Licensing System and Coast Guard Vessel Documentation Center.

Last reported at 2017-Nov-20 00:30 UTC. Time now 2017-Nov-21 20:52 UTC.
Position N 30°03' W 093°44'.

Length 27 m; draft 3.2 m.

Type: Towing. MMSI: 367162840.

Date/timePositionNaut miles runAvg speedWind from/ knotsBaromVisibWave heightAir tempDewpointWater temp
2017-Nov-20 00:30N 30°03' W 093°44'5 0.2
2017-Nov-19 03:00N 30°04' W 093°38'3 5.7
2017-Nov-19 02:30N 30°04' W 093°35'3 5.6
2017-Nov-19 02:00N 30°04' W 093°32'3 6.0
2017-Nov-19 01:30N 30°04' W 093°28'3 5.9
2017-Nov-19 01:01N 30°04' W 093°25'3 5.6
2017-Nov-19 00:31N 30°04' W 093°22'3 5.1
2017-Nov-19 00:01N 30°05' W 093°20'1 1.7
2017-Nov-18 23:30N 30°06' W 093°19'0 0.0
2017-Nov-18 23:00N 30°06' W 093°19'0 0.0
2017-Nov-18 22:30N 30°06' W 093°19'0 0.0
2017-Nov-18 22:00N 30°06' W 093°19'0 0.0
2017-Nov-18 21:30N 30°06' W 093°19'1 1.4
2017-Nov-18 21:00N 30°06' W 093°20'2 3.8
2017-Nov-18 20:30N 30°08' W 093°19'0 0.1
2017-Nov-18 20:00N 30°08' W 093°19'0 0.0
2017-Nov-18 19:30N 30°08' W 093°19'0 0.0
2017-Nov-18 19:00N 30°08' W 093°19'0 0.0
2017-Nov-18 18:30N 30°08' W 093°19'0 0.0
2017-Nov-18 18:00N 30°08' W 093°19'0 0.0
2017-Nov-18 17:30N 30°08' W 093°19'0 0.0
2017-Nov-18 17:00N 30°08' W 093°19'0 0.0
2017-Nov-18 16:30N 30°08' W 093°19'0 0.0
2017-Nov-18 16:00N 30°08' W 093°19'0 0.0
2017-Nov-18 15:31N 30°08' W 093°19'0 0.0
2017-Nov-18 15:00N 30°08' W 093°19'0 0.0
2017-Nov-18 14:31N 30°08' W 093°19'0 0.0
2017-Nov-18 14:00N 30°08' W 093°19'0 0.0
2017-Nov-18 13:30N 30°08' W 093°19'0 0.0
2017-Nov-18 13:00N 30°08' W 093°19'0 0.0
2017-Nov-18 12:30N 30°08' W 093°19'0 0.0
2017-Nov-18 12:00N 30°08' W 093°19'0 0.0
2017-Nov-18 11:30N 30°08' W 093°19'0 0.0
2017-Nov-18 11:00N 30°08' W 093°19'0 0.0
2017-Nov-18 10:30N 30°08' W 093°19'0 0.0
2017-Nov-18 10:01N 30°08' W 093°19'0 0.0
2017-Nov-18 09:31N 30°08' W 093°19'0 0.0
2017-Nov-18 09:00N 30°08' W 093°19'0 0.0
2017-Nov-18 08:30N 30°08' W 093°19'0 0.0
2017-Nov-18 08:00N 30°08' W 093°19'0 0.0
2017-Nov-18 07:30N 30°08' W 093°19'0 0.0
2017-Nov-18 07:00N 30°08' W 093°19'0 0.0
2017-Nov-18 06:30N 30°08' W 093°19'0 0.0
2017-Nov-18 06:00N 30°08' W 093°19'0 0.0
2017-Nov-18 05:30N 30°08' W 093°19'0 0.0
2017-Nov-18 05:01N 30°08' W 093°19'0 0.0
2017-Nov-18 04:30N 30°08' W 093°19'0 0.0
2017-Nov-18 04:00N 30°08' W 093°19'0 0.0
2017-Nov-18 03:31N 30°08' W 093°19'0 0.0
2017-Nov-18 03:00N 30°08' W 093°19'0 0.0
2017-Nov-18 02:31N 30°08' W 093°19'0 0.0
2017-Nov-18 02:00N 30°08' W 093°19'0 0.0
2017-Nov-18 01:31N 30°08' W 093°19'0 0.0
2017-Nov-18 01:00N 30°08' W 093°19'0 0.0
2017-Nov-18 00:30N 30°08' W 093°19'0 0.0
2017-Nov-18 00:00N 30°08' W 093°19'0 0.0
2017-Nov-17 23:31N 30°08' W 093°19'0 0.0
2017-Nov-17 23:01N 30°08' W 093°19'0 0.0
2017-Nov-17 22:31N 30°08' W 093°19'0 0.0
2017-Nov-17 22:00N 30°08' W 093°19'0 0.0
2017-Nov-17 21:31N 30°08' W 093°19'0 0.0
2017-Nov-17 21:00N 30°08' W 093°19'0 0.0
2017-Nov-17 20:30N 30°08' W 093°19'0 0.0
2017-Nov-17 20:00N 30°08' W 093°19'0 0.0
2017-Nov-17 19:30N 30°08' W 093°19'0 0.0
2017-Nov-17 19:00N 30°08' W 093°19'0 0.0
2017-Nov-17 18:30N 30°08' W 093°19'1 1.6
2017-Nov-17 18:01N 30°07' W 093°20'2 4.5
2017-Nov-17 17:31N 30°05' W 093°20'2 3.3
2017-Nov-17 17:00N 30°04' W 093°21'2 5.0
2017-Nov-17 16:30N 30°04' W 093°24'3 5.6
2017-Nov-17 16:01N 30°04' W 093°27'3 5.6
2017-Nov-17 15:30N 30°04' W 093°30'3 5.5
2017-Nov-17 15:00N 30°04' W 093°33'3 5.5
2017-Nov-17 14:30N 30°04' W 093°37'3 5.8
2017-Nov-17 13:55N 30°04' W 093°40'3 5.8
2017-Nov-17 13:27N 30°03' W 093°44'13 0.6
2017-Nov-16 14:38N 30°01' W 093°59'0 0.2
2017-Nov-16 14:28N 30°01' W 093°59'0 0.0
2017-Nov-16 13:49N 30°01' W 093°59'0 0.0
2017-Nov-16 13:18N 30°01' W 093°59'0 0.0
2017-Nov-16 12:59N 30°01' W 093°59'0 0.0
2017-Nov-16 12:30N 30°01' W 093°59'0 0.0
2017-Nov-16 11:22N 30°01' W 093°59'0 0.0
2017-Nov-16 10:57N 30°01' W 093°59'0 0.0
2017-Nov-16 10:30N 30°01' W 093°59'0 0.0
2017-Nov-16 10:00N 30°01' W 093°59'0 0.0
2017-Nov-16 09:22N 30°01' W 093°59'0 0.2
2017-Nov-16 09:00N 30°01' W 093°59'0 0.1
2017-Nov-16 08:27N 30°01' W 093°59'0 0.0
2017-Nov-16 07:55N 30°01' W 093°59'0 0.0
2017-Nov-16 06:13N 30°01' W 093°59'0 0.0
2017-Nov-16 05:52N 30°01' W 093°59'0 0.0
2017-Nov-16 05:30N 30°01' W 093°59'0 0.1
2017-Nov-16 05:00N 30°01' W 093°59'0 0.0
2017-Nov-16 04:27N 30°01' W 093°59'0 0.0
2017-Nov-16 03:59N 30°01' W 093°59'0 0.9
2017-Nov-16 03:28N 30°01' W 093°59'18 4.5
2017-Nov-15 23:31N 30°04' W 093°39'0 5.0
2017-Nov-15 23:26N 30°04' W 093°38'2 5.2
2017-Nov-15 22:59N 30°04' W 093°35'2 5.2
2017-Nov-15 22:30N 30°04' W 093°33'3 5.1
2017-Nov-15 22:00N 30°04' W 093°30'3 5.5
2017-Nov-15 21:31N 30°04' W 093°26'3 5.6
2017-Nov-15 21:00N 30°04' W 093°23'2 4.9
2017-Nov-15 20:30N 30°04' W 093°20'2 3.9
2017-Nov-15 20:00N 30°06' W 093°20'2 3.7
2017-Nov-15 19:30N 30°08' W 093°20'0 0.6
2017-Nov-15 19:00N 30°08' W 093°19'0 0.0
2017-Nov-15 18:30N 30°08' W 093°19'0 0.0
2017-Nov-15 18:01N 30°08' W 093°19'0 0.0
2017-Nov-15 17:30N 30°08' W 093°19'0 0.0
2017-Nov-15 17:01N 30°08' W 093°19'0 0.0
2017-Nov-15 16:30N 30°08' W 093°19'0 0.0
2017-Nov-15 16:00N 30°08' W 093°19'0 0.0
2017-Nov-15 15:30N 30°08' W 093°19'0 0.0
2017-Nov-15 15:00N 30°08' W 093°19'0 0.0
2017-Nov-15 14:30N 30°08' W 093°19'0 0.0
2017-Nov-15 14:00N 30°08' W 093°19'0 0.0
2017-Nov-15 13:31N 30°08' W 093°19'0 0.0
2017-Nov-15 13:00N 30°08' W 093°19'0 0.0
2017-Nov-15 12:30N 30°08' W 093°19'0 0.0
2017-Nov-15 12:00N 30°08' W 093°19'0 0.0
2017-Nov-15 11:30N 30°08' W 093°19'0 0.0
2017-Nov-15 11:01N 30°08' W 093°19'0 0.0
2017-Nov-15 10:31N 30°08' W 093°19'0 0.0
2017-Nov-15 10:00N 30°08' W 093°19'0 0.0
2017-Nov-15 09:31N 30°08' W 093°19'0 0.0
2017-Nov-15 09:01N 30°08' W 093°19'0 0.0
2017-Nov-15 08:30N 30°08' W 093°19'0 0.0
2017-Nov-15 08:00N 30°08' W 093°19'0 0.0
2017-Nov-15 07:30N 30°08' W 093°19'0 0.0
2017-Nov-15 07:00N 30°08' W 093°19'0 0.0
2017-Nov-15 06:30N 30°08' W 093°19'0 0.0
2017-Nov-15 06:00N 30°08' W 093°19'0 0.0
2017-Nov-15 05:30N 30°08' W 093°19'0 0.0
2017-Nov-15 05:01N 30°08' W 093°19'0 0.0
2017-Nov-15 04:31N 30°08' W 093°19'0 0.0
2017-Nov-15 04:01N 30°08' W 093°19'0 0.0
2017-Nov-15 03:30N 30°08' W 093°19'0 0.0
2017-Nov-15 03:01N 30°08' W 093°19'0 0.0
2017-Nov-15 02:31N 30°08' W 093°19'0 0.0
2017-Nov-15 02:00N 30°08' W 093°19'0 0.0
2017-Nov-15 01:30N 30°08' W 093°19'0 0.0
2017-Nov-15 01:00N 30°08' W 093°19'0 0.0
2017-Nov-15 00:30N 30°08' W 093°19'0 0.0
2017-Nov-15 00:00N 30°08' W 093°19'0 0.0
2017-Nov-14 23:30N 30°08' W 093°19'0 0.2
2017-Nov-14 23:00N 30°08' W 093°20'0 0.0
2017-Nov-14 22:30N 30°08' W 093°20'0 0.0
2017-Nov-14 22:00N 30°08' W 093°20'0 0.0
2017-Nov-14 21:30N 30°08' W 093°20'0 0.0
2017-Nov-14 21:01N 30°08' W 093°20'0 0.0
2017-Nov-14 20:31N 30°08' W 093°20'0 0.4
2017-Nov-14 20:00N 30°08' W 093°20'1 2.1
2017-Nov-14 19:30N 30°07' W 093°20'2 4.9
2017-Nov-14 19:01N 30°05' W 093°20'2 3.8
2017-Nov-14 18:30N 30°04' W 093°22'2 4.9
2017-Nov-14 18:00N 30°04' W 093°25'3 5.6
2017-Nov-14 17:31N 30°04' W 093°28'3 5.7
2017-Nov-14 17:01N 30°04' W 093°32'3 5.5
2017-Nov-14 16:30N 30°04' W 093°35'3 5.8
2017-Nov-14 15:58N 30°04' W 093°38'3 5.4
2017-Nov-14 15:23N 30°03' W 093°42'20 0.4
2017-Nov-12 13:45N 30°08' W 093°20'1 4.3
2017-Nov-12 13:27N 30°07' W 093°20'2 4.1
2017-Nov-12 12:59N 30°05' W 093°20'0 0.0
2017-Nov-10 16:23N 30°05' W 093°20'0 0.0
2017-Nov-10 15:59N 30°05' W 093°20'0 0.0
2017-Nov-10 15:29N 30°05' W 093°20'0 0.0
2017-Nov-10 14:59N 30°05' W 093°20'0 0.0
2017-Nov-10 14:29N 30°05' W 093°20'0 0.0
2017-Nov-10 13:59N 30°05' W 093°20'0 0.0
2017-Nov-10 13:29N 30°05' W 093°20'0 0.0
2017-Nov-10 12:59N 30°05' W 093°20'0 0.0
2017-Nov-10 12:29N 30°05' W 093°20'0 0.0
2017-Nov-10 11:59N 30°05' W 093°20'0 0.0
2017-Nov-10 11:29N 30°05' W 093°20'0 0.0
2017-Nov-10 10:59N 30°05' W 093°20'0 0.0
2017-Nov-10 10:23N 30°05' W 093°20'0 0.0
2017-Nov-10 09:59N 30°05' W 093°20'0 0.0
2017-Nov-10 09:29N 30°05' W 093°20'0 0.0
2017-Nov-10 08:59N 30°05' W 093°20'0 0.0
2017-Nov-10 08:29N 30°05' W 093°20'0 0.0
2017-Nov-10 07:59N 30°05' W 093°20'0 0.0
2017-Nov-10 07:29N 30°05' W 093°20'0 0.0
2017-Nov-10 06:59N 30°05' W 093°20'0 0.0
2017-Nov-10 06:29N 30°05' W 093°20'0 0.0
2017-Nov-10 05:59N 30°05' W 093°20'0 0.0
2017-Nov-10 05:29N 30°05' W 093°20'0 0.0
2017-Nov-10 04:59N 30°05' W 093°20'0 0.0
2017-Nov-10 04:29N 30°05' W 093°20'0 0.0
2017-Nov-10 03:58N 30°05' W 093°20'0 0.0
2017-Nov-10 03:28N 30°05' W 093°20'0 0.0
2017-Nov-10 02:59N 30°05' W 093°20'0 0.0
2017-Nov-10 02:29N 30°05' W 093°20'0 0.0
2017-Nov-10 01:58N 30°05' W 093°20'0 0.0
2017-Nov-10 01:29N 30°05' W 093°20'0 0.0
2017-Nov-10 00:59N 30°05' W 093°20'  

Dump ship's entire track history